Time;durP1;ratioP1;P1;durP2;ratioP2;P2;SDS_P1;SDS_P2;PMS_P1;PMS_P2;Temp;Humidity;BMP_temperature;BMP_pressure;BME280_temperature;BME280_humidity;BME280_pressure;Samples;Min_cycle;Max_cycle;Signal;HPM_P1;HPM_P2
2022/08/18 00:02:08;;;;;;;13.10;5.32;;;19.10;99.90;;;;;;5026285;28;20033;-81
2022/08/18 00:04:37;;;;;;;13.20;4.93;;;19.10;99.90;;;;;;5013690;28;20073;-81
2022/08/18 00:07:09;;;;;;;12.82;4.45;;;19.10;99.90;;;;;;5016081;28;20041;-81
2022/08/18 00:09:37;;;;;;;12.35;5.05;;;19.00;99.90;;;;;;5008269;28;20042;-81
2022/08/18 00:12:09;;;;;;;15.70;5.35;;;19.10;99.90;;;;;;5016352;28;20033;-81
2022/08/18 00:14:35;;;;;;;15.13;5.35;;;19.10;99.90;;;;;;5002510;28;20531;-81
2022/08/18 00:17:00;;;;;;;14.35;5.88;;;19.10;99.90;;;;;;5025763;28;20038;-81
2022/08/18 00:19:26;;;;;;;10.20;5.32;;;19.00;99.90;;;;;;5000411;28;20401;-81
2022/08/18 00:21:52;;;;;;;10.38;4.95;;;19.00;99.90;;;;;;5027492;28;20115;-81
2022/08/18 00:24:17;;;;;;;10.57;5.65;;;19.00;99.90;;;;;;5027709;28;20043;-81
2022/08/18 00:26:43;;;;;;;12.68;5.25;;;18.90;99.90;;;;;;4999778;28;20503;-81
2022/08/18 00:29:09;;;;;;;10.20;4.90;;;18.90;99.90;;;;;;5011563;28;20116;-81
2022/08/18 00:31:34;;;;;;;18.13;5.93;;;18.90;99.90;;;;;;5027626;28;20370;-81
2022/08/18 00:34:00;;;;;;;13.30;5.57;;;18.90;99.90;;;;;;5011314;28;20409;-81
2022/08/18 00:36:27;;;;;;;19.75;5.57;;;18.80;99.90;;;;;;5001762;28;20112;-81
2022/08/18 00:38:53;;;;;;;12.50;5.28;;;18.80;99.90;;;;;;5013210;28;20069;-81
2022/08/18 00:41:19;;;;;;;10.52;5.32;;;18.90;99.90;;;;;;5015593;28;20532;-81
2022/08/18 00:43:46;;;;;;;;;;;18.80;99.90;;;;;;5026138;28;20389;-81
2022/08/18 00:46:21;;;;;;;10.40;5.38;;;18.80;99.90;;;;;;5022488;28;19920;-81
2022/08/18 00:48:48;;;;;;;10.63;5.55;;;18.80;99.90;;;;;;5027787;28;20451;-81
2022/08/18 00:51:29;;;;;;;11.60;5.72;;;18.80;99.90;;;;;;4999888;28;20041;-81
2022/08/18 00:54:15;;;;;;;12.48;5.32;;;18.70;99.90;;;;;;5019225;28;20064;-81
2022/08/18 00:56:54;;;;;;;9.90;5.50;;;18.70;99.90;;;;;;5010155;28;20050;-81
2022/08/18 00:59:46;;;;;;;15.10;6.32;;;18.70;99.90;;;;;;5003947;28;20096;-81
2022/08/18 01:02:19;;;;;;;17.30;5.90;;;18.70;99.90;;;;;;5001917;28;20041;-81
2022/08/18 01:04:58;;;;;;;13.10;5.78;;;18.70;99.90;;;;;;5017746;28;20025;-81
2022/08/18 01:07:41;;;;;;;16.92;5.53;;;18.70;99.90;;;;;;5025022;28;20055;-81
2022/08/18 01:10:07;;;;;;;16.63;6.45;;;18.70;99.90;;;;;;5020371;28;20375;-82
2022/08/18 01:12:33;;;;;;;16.92;6.32;;;18.70;99.90;;;;;;5012392;28;20370;-81
2022/08/18 01:14:59;;;;;;;15.20;6.57;;;18.70;99.90;;;;;;5006600;28;20038;-81
2022/08/18 01:23:15;;;;;;;16.58;6.20;;;18.80;99.90;;;;;;5031134;28;20116;-82
2022/08/18 01:26:02;;;;;;;18.90;6.32;;;18.80;99.90;;;;;;5030742;28;20055;-82
2022/08/18 01:28:38;;;;;;;18.30;6.28;;;18.80;99.90;;;;;;5019141;28;20037;-81
2022/08/18 01:31:05;;;;;;;16.92;6.53;;;18.80;99.90;;;;;;5026676;28;20037;-81
2022/08/18 01:33:35;;;;;;;16.52;6.85;;;18.80;99.90;;;;;;5021875;28;20034;-81
2022/08/18 01:36:21;;;;;;;17.98;7.38;;;18.80;99.90;;;;;;5019575;28;20045;-81
2022/08/18 01:38:50;;;;;;;13.77;6.45;;;18.80;99.90;;;;;;5017952;28;20044;-81
2022/08/18 01:41:21;;;;;;;15.13;6.82;;;18.80;99.90;;;;;;5026091;28;20060;-81
2022/08/18 01:43:48;;;;;;;16.58;6.68;;;18.80;99.90;;;;;;5029781;28;20252;-81
2022/08/18 01:46:18;;;;;;;16.25;6.85;;;18.80;99.90;;;;;;5026364;28;20117;-81
2022/08/18 01:48:45;;;;;;;14.98;7.07;;;18.80;99.90;;;;;;5030985;28;20056;-81
2022/08/18 01:51:12;;;;;;;18.58;7.10;;;18.80;99.90;;;;;;5016584;28;20060;-81
2022/08/18 01:53:38;;;;;;;24.52;7.82;;;18.90;99.90;;;;;;5025670;28;20062;-81
2022/08/18 01:56:04;;;;;;;18.52;7.60;;;18.80;99.90;;;;;;4998228;28;20099;-81
2022/08/18 01:58:35;;;;;;;17.48;6.72;;;18.80;99.90;;;;;;5012561;28;20034;-81
2022/08/18 02:01:02;;;;;;;14.38;6.95;;;18.80;99.90;;;;;;5012070;28;20030;-81
2022/08/18 02:03:34;;;;;;;14.70;7.10;;;18.90;99.90;;;;;;5029688;28;20120;-81
2022/08/18 02:06:02;;;;;;;20.33;7.78;;;18.90;99.90;;;;;;5026220;28;20501;-81
2022/08/18 02:08:29;;;;;;;16.42;7.47;;;18.80;99.90;;;;;;5005082;28;20108;-81
2022/08/18 02:10:57;;;;;;;18.48;7.75;;;18.80;99.90;;;;;;5026094;28;20121;-81
2022/08/18 02:13:24;;;;;;;18.27;7.55;;;18.80;99.90;;;;;;5028674;28;20042;-81
2022/08/18 02:15:50;;;;;;;20.70;8.20;;;18.90;99.90;;;;;;5030695;28;20522;-81
2022/08/18 02:18:27;;;;;;;15.70;7.45;;;18.90;99.90;;;;;;5007812;28;20034;-81
2022/08/18 02:20:54;;;;;;;15.13;7.60;;;18.90;99.90;;;;;;5019696;28;20087;-81
2022/08/18 02:23:20;;;;;;;22.88;8.23;;;18.90;99.90;;;;;;5020140;28;20048;-81
2022/08/18 02:25:45;;;;;;;17.02;7.60;;;18.90;99.90;;;;;;5024649;28;20088;-81
2022/08/18 02:28:12;;;;;;;19.85;8.13;;;18.90;99.90;;;;;;5012599;28;20041;-81
2022/08/18 02:30:38;;;;;;;18.48;8.52;;;18.90;99.90;;;;;;5001970;28;20481;-81
2022/08/18 02:33:04;;;;;;;;;;;18.90;99.90;;;;;;5006397;28;20033;-81
2022/08/18 02:35:31;;;;;;;21.60;8.05;;;18.90;99.90;;;;;;5013034;28;20241;-81
2022/08/18 02:38:03;;;;;;;;;;;18.90;99.90;;;;;;5003000;28;20047;-81
2022/08/18 02:40:32;;;;;;;20.83;8.35;;;18.90;99.90;;;;;;5027823;28;19984;-81
2022/08/18 02:42:58;;;;;;;16.88;7.90;;;18.90;99.90;;;;;;5011670;28;20033;-81
2022/08/18 02:45:24;;;;;;;;;;;18.80;99.90;;;;;;5010795;28;20505;-81
2022/08/18 02:47:54;;;;;;;20.25;8.23;;;18.90;99.90;;;;;;5010002;28;19925;-81
2022/08/18 02:50:21;;;;;;;17.15;8.15;;;18.80;99.90;;;;;;5016331;28;20038;-81
2022/08/18 02:52:47;;;;;;;16.25;7.72;;;18.90;99.90;;;;;;4998118;28;20085;-81
2022/08/18 02:55:14;;;;;;;15.55;7.47;;;18.80;99.90;;;;;;5020361;28;20049;-81
2022/08/18 02:57:42;;;;;;;18.88;7.68;;;18.80;99.90;;;;;;4999590;28;20042;-81
2022/08/18 03:00:11;;;;;;;20.20;7.95;;;18.80;99.90;;;;;;5026770;28;20107;-81
2022/08/18 03:02:37;;;;;;;23.67;8.48;;;18.90;99.90;;;;;;4987186;28;20037;-81
2022/08/18 03:05:04;;;;;;;18.63;8.52;;;18.90;99.90;;;;;;5002894;28;20133;-81
2022/08/18 03:07:30;;;;;;;18.80;7.82;;;18.90;99.90;;;;;;5029084;28;20497;-81
2022/08/18 03:09:56;;;;;;;26.92;9.35;;;18.90;99.90;;;;;;5027079;28;20060;-81
2022/08/18 03:12:21;;;;;;;18.02;8.55;;;18.90;99.90;;;;;;5029738;28;20045;-81
2022/08/18 03:14:48;;;;;;;13.02;8.10;;;18.90;99.90;;;;;;5005534;28;20045;-81
2022/08/18 03:17:13;;;;;;;14.90;8.23;;;18.80;99.90;;;;;;4992440;28;20406;-81
2022/08/18 03:19:40;;;;;;;20.40;8.73;;;18.90;99.90;;;;;;4995747;28;20049;-81
2022/08/18 03:22:08;;;;;;;20.75;8.88;;;18.90;99.90;;;;;;5018102;28;20552;-81
2022/08/18 03:24:35;;;;;;;17.25;8.93;;;18.90;99.90;;;;;;5008625;28;20037;-81
2022/08/18 03:27:05;;;;;;;24.27;10.48;;;18.80;99.90;;;;;;5021657;28;20287;-81
2022/08/18 03:29:31;;;;;;;18.42;9.70;;;18.90;99.90;;;;;;5026917;28;20048;-81
2022/08/18 03:31:56;;;;;;;18.98;9.30;;;18.80;99.90;;;;;;5024680;28;20033;-81
2022/08/18 03:34:22;;;;;;;16.45;9.40;;;18.80;99.90;;;;;;5005232;28;20368;-81
2022/08/18 03:36:49;;;;;;;20.92;9.43;;;18.80;99.90;;;;;;5028021;28;20132;-81
2022/08/18 03:39:16;;;;;;;21.60;10.27;;;18.80;99.90;;;;;;5023862;28;20042;-81
2022/08/18 03:41:44;;;;;;;17.15;9.18;;;18.80;99.90;;;;;;5001976;28;20140;-81
2022/08/18 03:44:13;;;;;;;17.48;9.90;;;18.80;99.90;;;;;;5019171;28;20045;-81
2022/08/18 03:46:43;;;;;;;17.20;9.50;;;18.80;99.90;;;;;;4994287;28;20045;-81
2022/08/18 03:49:09;;;;;;;22.00;10.13;;;18.80;99.90;;;;;;5014413;28;20405;-81
2022/08/18 03:51:35;;;;;;;15.35;8.85;;;18.80;99.90;;;;;;5022618;28;20033;-81
2022/08/18 03:54:02;;;;;;;;;;;18.70;99.90;;;;;;5021484;28;20045;-81
2022/08/18 03:56:34;;;;;;;18.20;9.73;;;18.70;99.90;;;;;;5028641;28;19921;-81
2022/08/18 03:59:08;;;;;;;18.17;10.13;;;18.70;99.90;;;;;;5015203;28;20038;-81
2022/08/18 04:01:38;;;;;;;17.83;9.70;;;18.70;99.90;;;;;;5019201;28;20034;-81
2022/08/18 04:04:06;;;;;;;19.00;9.50;;;18.70;99.90;;;;;;5007008;28;20045;-82
2022/08/18 04:06:35;;;;;;;16.83;10.23;;;18.70;99.90;;;;;;5019223;28;20045;-81
2022/08/18 04:09:04;;;;;;;19.88;10.02;;;18.70;99.90;;;;;;5009541;28;20570;-81
2022/08/18 04:11:34;;;;;;;21.25;11.13;;;18.70;99.90;;;;;;5021846;28;20392;-81
2022/08/18 04:14:00;;;;;;;20.95;9.93;;;18.70;99.90;;;;;;5013636;28;20051;-81
2022/08/18 04:16:28;;;;;;;18.88;9.73;;;18.60;99.90;;;;;;5016422;28;20033;-81
2022/08/18 04:18:58;;;;;;;18.83;10.77;;;18.60;99.90;;;;;;5027428;28;20033;-82
2022/08/18 04:21:24;;;;;;;15.98;9.85;;;18.70;99.90;;;;;;5043505;28;20401;-82
2022/08/18 04:23:50;;;;;;;16.77;10.30;;;18.70;99.90;;;;;;5014112;28;20033;-81
2022/08/18 04:26:17;;;;;;;17.17;10.32;;;18.70;99.90;;;;;;4997344;28;20396;-81
2022/08/18 04:28:43;;;;;;;18.80;10.30;;;18.70;99.90;;;;;;5028814;28;20045;-87
2022/08/18 04:31:14;;;;;;;22.42;10.32;;;18.70;99.90;;;;;;5001698;28;20088;-87
2022/08/18 04:33:41;;;;;;;16.55;9.82;;;18.70;99.90;;;;;;5019873;28;20045;-84
2022/08/18 04:36:14;;;;;;;17.65;10.27;;;18.70;99.90;;;;;;5005692;28;20044;-84
2022/08/18 04:38:41;;;;;;;17.10;10.80;;;18.70;99.90;;;;;;5011550;28;20129;-88
2022/08/18 04:41:07;;;;;;;17.65;10.35;;;18.70;99.90;;;;;;5004659;28;20030;-86
2022/08/18 04:43:33;;;;;;;17.63;10.23;;;18.70;99.90;;;;;;5009084;28;20112;-87
2022/08/18 04:46:00;;;;;;;17.75;11.85;;;18.70;99.90;;;;;;5017698;28;20124;-85
2022/08/18 04:48:38;;;;;;;17.83;10.57;;;18.70;99.90;;;;;;4986111;28;20331;-85
2022/08/18 04:51:11;;;;;;;18.77;11.15;;;18.70;99.90;;;;;;5022479;28;20045;-85
2022/08/18 04:53:44;;;;;;;14.82;10.80;;;18.70;99.90;;;;;;4994785;28;20112;-86
2022/08/18 04:56:24;;;;;;;14.25;10.55;;;18.80;99.90;;;;;;5018750;28;20372;-82
2022/08/18 04:59:01;;;;;;;19.75;11.27;;;18.80;99.90;;;;;;5027688;28;20041;-80
2022/08/18 05:01:30;;;;;;;18.00;12.35;;;18.80;99.90;;;;;;5044978;28;20041;-80
2022/08/18 05:03:57;;;;;;;17.00;11.73;;;18.80;99.90;;;;;;5015973;28;20125;-80
2022/08/18 05:06:25;;;;;;;16.27;11.57;;;18.80;99.90;;;;;;5019364;28;20508;-80
2022/08/18 05:08:53;;;;;;;17.70;11.20;;;18.80;99.90;;;;;;5020979;28;20125;-80
2022/08/18 05:11:20;;;;;;;16.85;11.23;;;18.80;99.90;;;;;;5028182;28;20116;-80
2022/08/18 05:13:47;;;;;;;13.93;11.48;;;18.80;99.90;;;;;;5028555;28;20041;-80
2022/08/18 05:16:13;;;;;;;18.30;12.27;;;18.80;99.90;;;;;;5027797;28;20045;-80
2022/08/18 05:18:39;;;;;;;20.02;11.80;;;18.80;99.90;;;;;;5028324;28;20037;-80
2022/08/18 05:21:12;;;;;;;14.48;11.77;;;18.70;99.90;;;;;;5020778;28;20617;-80
2022/08/18 05:23:41;;;;;;;20.98;12.77;;;18.70;99.90;;;;;;5011867;28;20103;-80
2022/08/18 05:26:07;;;;;;;16.95;12.13;;;18.70;99.90;;;;;;5007058;28;20041;-80
2022/08/18 05:28:36;;;;;;;21.15;12.02;;;18.70;99.90;;;;;;5028459;28;20037;-80
2022/08/18 05:31:10;;;;;;;15.75;11.18;;;18.80;99.90;;;;;;5027822;28;20492;-80
2022/08/18 05:33:38;;;;;;;17.13;12.57;;;18.70;99.90;;;;;;5012400;28;20135;-80
2022/08/18 05:36:09;;;;;;;16.17;9.82;;;18.80;99.90;;;;;;5027738;28;20052;-80
2022/08/18 05:38:58;;;;;;;19.38;9.65;;;18.80;99.90;;;;;;5018871;28;20030;-80
2022/08/18 05:41:32;;;;;;;14.30;8.80;;;18.80;99.90;;;;;;4997525;28;20054;-80
2022/08/18 05:44:00;;;;;;;16.20;8.98;;;18.80;99.90;;;;;;5027955;28;20045;-80
2022/08/18 05:46:39;;;;;;;13.57;8.52;;;18.80;99.90;;;;;;5020997;28;20046;-80
2022/08/18 05:49:05;;;;;;;16.73;8.85;;;18.90;99.90;;;;;;5026263;28;20722;-80
2022/08/18 05:51:39;;;;;;;14.40;8.43;;;18.90;99.90;;;;;;5011136;28;20037;-80
2022/08/18 05:56:58;;;;;;;13.82;6.07;;;18.90;99.90;;;;;;5025019;28;20108;-80
2022/08/18 05:59:31;;;;;;;13.50;6.55;;;19.00;99.90;;;;;;5024978;28;20045;-80
2022/08/18 06:02:06;;;;;;;14.15;6.35;;;19.00;99.90;;;;;;5020279;28;20203;-80
2022/08/18 06:04:37;;;;;;;16.23;6.90;;;19.00;99.90;;;;;;5014836;28;20030;-80
2022/08/18 06:07:06;;;;;;;13.45;7.50;;;19.00;99.90;;;;;;5024545;28;20049;-80
2022/08/18 06:09:38;;;;;;;12.70;9.13;;;19.00;99.90;;;;;;5030578;28;20510;-80
2022/08/18 06:12:30;;;;;;;14.70;9.00;;;19.10;99.90;;;;;;5027791;28;20505;-80
2022/08/18 06:15:19;;;;;;;9.57;8.45;;;19.20;99.90;;;;;;5014054;28;20052;-80
2022/08/18 06:18:26;;;;;;;16.90;8.10;;;19.40;99.90;;;;;;5011311;28;20347;-80
2022/08/18 06:21:08;;;;;;;16.42;7.38;;;19.50;99.90;;;;;;4994398;28;20095;-80
2022/08/18 06:23:56;;;;;;;12.73;7.85;;;19.50;99.90;;;;;;5002450;28;20497;-80
2022/08/18 06:26:55;;;;;;;11.35;6.95;;;19.50;99.90;;;;;;5028911;28;20044;-80
2022/08/18 06:29:21;;;;;;;9.60;6.60;;;19.40;99.90;;;;;;5010442;28;20033;-80
2022/08/18 06:32:20;;;;;;;11.52;6.65;;;19.40;99.90;;;;;;5026438;28;20066;-80
2022/08/18 06:35:00;;;;;;;12.02;6.10;;;19.40;99.90;;;;;;5030511;28;20052;-80
2022/08/18 06:38:37;;;;;;;10.90;5.40;;;19.40;99.90;;;;;;4997184;28;20048;-80
2022/08/18 06:40:23;;;;;;;;;;;19.30;99.90;;;;;;5011455;28;20096;-80
2022/08/18 06:42:49;;;;;;;11.10;4.97;;;19.30;99.90;;;;;;5011180;28;19921;-80
2022/08/18 06:45:17;;;;;;;10.48;4.93;;;19.40;99.90;;;;;;4994431;28;20140;-80
2022/08/18 06:48:09;;;;;;;13.82;4.95;;;19.40;99.90;;;;;;5005461;28;20583;-80
2022/08/18 06:51:02;;;;;;;12.75;4.47;;;19.40;99.90;;;;;;5014168;28;20041;-80
2022/08/18 06:53:56;;;;;;;15.65;4.25;;;19.40;99.90;;;;;;4997066;28;20050;-80
2022/08/18 06:56:24;;;;;;;13.82;4.55;;;19.40;99.90;;;;;;5025573;28;20419;-80
2022/08/18 06:58:54;;;;;;;16.65;4.35;;;19.40;99.90;;;;;;5029362;28;20041;-80
2022/08/18 07:01:21;;;;;;;13.38;4.05;;;19.40;99.90;;;;;;5029854;28;20504;-80
2022/08/18 07:03:55;;;;;;;11.30;3.40;;;19.40;99.90;;;;;;4998900;28;20042;-80
2022/08/18 07:06:20;;;;;;;10.88;3.67;;;19.50;99.90;;;;;;5010588;28;20624;-80
2022/08/18 07:08:51;;;;;;;14.35;3.45;;;19.40;99.90;;;;;;5026360;28;20123;-80
2022/08/18 07:11:25;;;;;;;9.13;2.88;;;19.40;99.90;;;;;;4997735;28;20033;-80
2022/08/18 07:13:58;;;;;;;9.77;3.17;;;19.30;99.90;;;;;;5030290;28;20107;-80
2022/08/18 07:16:30;;;;;;;13.27;3.78;;;19.20;99.90;;;;;;5026351;28;20398;-80
2022/08/18 07:19:09;;;;;;;8.25;3.40;;;19.30;99.90;;;;;;5019372;28;20061;-80
2022/08/18 07:21:36;;;;;;;8.77;3.28;;;19.30;99.90;;;;;;5028375;28;20366;-80
2022/08/18 07:24:13;;;;;;;9.90;3.92;;;19.30;99.90;;;;;;5008450;28;20121;-80
2022/08/18 07:26:59;;;;;;;;;;;19.30;99.90;;;;;;5022412;28;20044;-80
2022/08/18 07:29:25;;;;;;;12.55;3.83;;;19.20;99.90;;;;;;5013040;28;19956;-80
2022/08/18 07:31:53;;;;;;;10.15;3.20;;;19.20;99.90;;;;;;5004035;28;20049;-80
2022/08/18 07:34:36;;;;;;;9.27;3.50;;;19.20;99.90;;;;;;5012869;28;20042;-80
2022/08/18 07:37:19;;;;;;;13.95;3.45;;;19.20;99.90;;;;;;5029318;28;20080;-80
2022/08/18 07:39:54;;;;;;;9.27;3.50;;;19.20;99.90;;;;;;5005891;28;20038;-80
2022/08/18 07:42:38;;;;;;;10.95;3.50;;;19.20;99.90;;;;;;5029296;28;20033;-80
2022/08/18 07:45:15;;;;;;;12.10;3.38;;;19.20;99.90;;;;;;5029241;28;20029;-80
2022/08/18 07:48:02;;;;;;;8.85;3.42;;;19.30;99.90;;;;;;5029845;28;20109;-80
2022/08/18 07:50:38;;;;;;;6.00;3.23;;;19.40;99.90;;;;;;5021620;28;20362;-80
2022/08/18 07:53:23;;;;;;;6.32;2.88;;;19.40;99.90;;;;;;5018631;28;20292;-80
2022/08/18 07:55:58;;;;;;;6.80;3.13;;;19.60;99.90;;;;;;5028193;28;20440;-80
2022/08/18 07:58:45;;;;;;;7.22;2.60;;;19.80;99.90;;;;;;5029089;28;20037;-80
2022/08/18 08:01:17;;;;;;;7.88;3.03;;;19.90;99.90;;;;;;5009439;28;20093;-80
2022/08/18 08:04:01;;;;;;;8.80;2.80;;;20.00;99.90;;;;;;5020865;28;20056;-80
2022/08/18 08:06:48;;;;;;;12.60;2.55;;;20.00;99.90;;;;;;5045020;28;20408;-81
2022/08/18 08:09:36;;;;;;;4.55;2.10;;;20.00;99.90;;;;;;5024762;28;20150;-81
2022/08/18 08:12:07;;;;;;;;;;;20.10;99.90;;;;;;5029427;28;20185;-81
2022/08/18 08:14:46;;;;;;;6.45;1.88;;;20.20;99.90;;;;;;5012767;28;20070;-81
2022/08/18 08:17:36;;;;;;;5.10;1.92;;;20.50;99.90;;;;;;5028494;28;20033;-81
2022/08/18 08:20:07;;;;;;;3.92;1.55;;;20.70;99.90;;;;;;5028899;28;20060;-81
2022/08/18 08:22:38;;;;;;;4.63;1.48;;;20.80;99.90;;;;;;5028851;28;20030;-80
2022/08/18 08:25:24;;;;;;;7.63;1.75;;;20.60;99.90;;;;;;5028537;28;20029;-81
2022/08/18 08:28:06;;;;;;;6.75;1.95;;;20.40;99.90;;;;;;5000726;28;20587;-80
2022/08/18 08:30:40;;;;;;;4.55;1.58;;;20.50;99.90;;;;;;5028498;28;20041;-80
2022/08/18 08:33:16;;;;;;;3.53;1.52;;;20.60;99.90;;;;;;5023597;28;20481;-81
2022/08/18 08:35:54;;;;;;;3.17;1.50;;;20.80;99.90;;;;;;5028880;28;20045;-81
2022/08/18 08:38:45;;;;;;;3.72;1.17;;;20.90;99.90;;;;;;5018977;28;20111;-81
2022/08/18 08:41:40;;;;;;;4.32;1.42;;;21.00;99.90;;;;;;5004975;28;20201;-81
2022/08/18 08:44:18;;;;;;;4.38;1.60;;;21.00;99.90;;;;;;5005644;28;20073;-81
2022/08/18 08:47:01;;;;;;;3.67;1.13;;;21.00;99.90;;;;;;5019131;28;20041;-80
2022/08/18 08:49:43;;;;;;;2.97;1.20;;;21.00;99.90;;;;;;5028639;28;20495;-81
2022/08/18 08:52:38;;;;;;;2.45;1.00;;;21.20;99.90;;;;;;5015034;28;20156;-81
2022/08/18 08:55:25;;;;;;;3.30;1.20;;;21.30;99.90;;;;;;5045199;28;20497;-81
2022/08/18 08:58:20;;;;;;;4.20;1.40;;;21.40;99.90;;;;;;5026122;28;20485;-81
2022/08/18 09:00:47;;;;;;;3.75;1.10;;;21.40;99.90;;;;;;5028471;28;20038;-81
2022/08/18 09:03:38;;;;;;;4.13;1.20;;;21.50;99.90;;;;;;5025882;28;20052;-81
2022/08/18 09:06:24;;;;;;;4.75;1.35;;;21.70;99.90;;;;;;5025881;28;20374;-81
2022/08/18 09:09:05;;;;;;;2.95;1.20;;;21.80;99.90;;;;;;5025242;28;20053;-81
2022/08/18 09:11:53;;;;;;;3.47;1.27;;;21.60;99.90;;;;;;5010482;28;20034;-81
2022/08/18 09:14:31;;;;;;;;;;;21.50;99.90;;;;;;5028653;28;20453;-81
2022/08/18 09:17:27;;;;;;;3.00;1.15;;;21.40;99.90;;;;;;5025051;28;19921;-81
2022/08/18 09:19:58;;;;;;;6.57;1.83;;;21.40;99.90;;;;;;5009463;28;20046;-81
2022/08/18 09:22:50;;;;;;;3.25;1.30;;;21.30;99.90;;;;;;5027973;28;20637;-80
2022/08/18 09:25:31;;;;;;;2.75;1.33;;;21.20;99.90;;;;;;5027881;28;20041;-81
2022/08/18 09:28:10;;;;;;;4.10;1.73;;;21.00;99.90;;;;;;5028645;28;20488;-81
2022/08/18 09:30:41;;;;;;;6.32;1.70;;;21.00;99.90;;;;;;5009469;28;20091;-81
2022/08/18 09:33:28;;;;;;;6.57;1.50;;;21.00;99.90;;;;;;5028303;28;20037;-81
2022/08/18 09:36:07;;;;;;;4.20;1.20;;;21.10;99.90;;;;;;5011500;28;20056;-81
2022/08/18 09:41:36;;;;;;;3.55;1.63;;;21.00;99.90;;;;;;5026332;28;20114;-81
2022/08/18 09:44:10;;;;;;;3.67;1.50;;;21.20;99.90;;;;;;5029101;28;20041;-81
2022/08/18 09:46:42;;;;;;;4.25;1.33;;;21.20;99.90;;;;;;5029741;28;20033;-81
2022/08/18 09:49:25;;;;;;;4.60;1.20;;;21.30;99.90;;;;;;5031745;28;20128;-81
2022/08/18 09:52:20;;;;;;;3.95;1.50;;;21.40;99.90;;;;;;5032128;28;20499;-81
2022/08/18 09:55:00;;;;;;;3.53;1.13;;;21.50;99.90;;;;;;5029498;28;20049;-81
2022/08/18 09:57:30;;;;;;;5.75;1.35;;;21.90;99.90;;;;;;5011530;28;20069;-81
2022/08/18 09:59:56;;;;;;;4.75;1.00;;;22.20;99.90;;;;;;5018566;28;20354;-81
2022/08/18 10:02:36;;;;;;;3.83;1.17;;;22.20;99.90;;;;;;5031567;28;20065;-81
2022/08/18 10:05:14;;;;;;;2.53;0.77;;;22.50;99.90;;;;;;5019991;28;20437;-81
2022/08/18 10:08:05;;;;;;;3.88;1.15;;;23.10;99.90;;;;;;5031673;28;20106;-81
2022/08/18 10:10:59;;;;;;;3.90;1.02;;;23.40;99.90;;;;;;5028775;28;20053;-81
2022/08/18 10:13:37;;;;;;;2.30;1.08;;;23.40;99.90;;;;;;5027629;28;20095;-81
2022/08/18 10:16:21;;;;;;;1.63;0.80;;;23.30;99.90;;;;;;5021870;28;20056;-81
2022/08/18 10:19:11;;;;;;;3.55;1.05;;;23.30;99.90;;;;;;5014434;28;20064;-81
2022/08/18 10:21:57;;;;;;;3.00;0.90;;;23.30;99.90;;;;;;5028559;28;20038;-81
2022/08/18 10:24:29;;;;;;;1.88;0.90;;;23.10;99.90;;;;;;5012058;28;20037;-81
2022/08/18 10:26:54;;;;;;;2.85;0.98;;;22.90;99.90;;;;;;5029150;28;20045;-81
2022/08/18 10:29:23;;;;;;;;;;;22.70;99.90;;;;;;5031243;28;20092;-81
2022/08/18 10:31:58;;;;;;;2.38;1.00;;;22.50;99.90;;;;;;5024381;28;20280;-80
2022/08/18 10:34:26;;;;;;;3.92;1.02;;;22.50;99.90;;;;;;5031059;28;20516;-80
2022/08/18 10:36:57;;;;;;;2.83;1.00;;;22.50;99.90;;;;;;5030301;28;20077;-81
2022/08/18 10:39:38;;;;;;;3.00;0.90;;;22.50;99.90;;;;;;5002096;28;20426;-80
2022/08/18 10:42:25;;;;;;;2.50;1.02;;;22.40;99.90;;;;;;5019823;28;20461;-86
2022/08/18 10:44:59;;;;;;;3.25;1.00;;;22.40;99.90;;;;;;4995602;28;20037;-79
2022/08/18 10:47:28;;;;;;;3.63;1.20;;;22.40;99.90;;;;;;5013815;28;20037;-79
2022/08/18 10:49:54;;;;;;;4.25;1.42;;;22.40;99.90;;;;;;5019568;28;20129;-79
2022/08/18 10:52:23;;;;;;;;;;;22.40;99.90;;;;;;5020659;28;20377;-79
2022/08/18 10:55:02;;;;;;;4.85;1.38;;;22.20;99.90;;;;;;5005650;28;19921;-79
2022/08/18 10:57:34;;;;;;;4.32;1.25;;;22.20;99.90;;;;;;5002747;28;20081;-79
2022/08/18 11:00:08;;;;;;;3.92;1.00;;;22.10;99.90;;;;;;5030808;28;20034;-80
2022/08/18 11:02:52;;;;;;;2.45;1.13;;;22.20;99.90;;;;;;5030505;28;20081;-79
2022/08/18 11:05:23;;;;;;;2.80;1.40;;;22.20;99.90;;;;;;5015367;28;20029;-80
2022/08/18 11:08:00;;;;;;;4.60;1.17;;;22.20;99.90;;;;;;5022728;28;20041;-79
2022/08/18 11:10:47;;;;;;;2.80;1.27;;;22.20;99.90;;;;;;5005895;28;20119;-79
2022/08/18 11:13:20;;;;;;;5.03;1.00;;;22.30;99.90;;;;;;5029315;28;20042;-79
2022/08/18 11:16:06;;;;;;;2.75;1.10;;;22.30;99.90;;;;;;5027535;28;20046;-82
2022/08/18 11:18:39;;;;;;;3.17;1.73;;;22.50;99.90;;;;;;5006692;28;20108;-80
2022/08/18 11:21:38;;;;;;;2.92;1.20;;;22.60;99.90;;;;;;5016755;28;20045;-80
2022/08/18 11:24:25;;;;;;;3.63;1.42;;;22.70;99.90;;;;;;5025314;28;20477;-80
2022/08/18 11:27:02;;;;;;;3.63;0.88;;;22.90;99.90;;;;;;5020520;28;20034;-80
2022/08/18 11:29:35;;;;;;;3.35;1.30;;;23.10;99.90;;;;;;5024995;28;20074;-80
2022/08/18 11:32:17;;;;;;;3.20;0.80;;;23.20;99.90;;;;;;5029066;28;20030;-80
2022/08/18 11:35:05;;;;;;;2.58;1.10;;;23.50;99.90;;;;;;5011085;28;20180;-80
2022/08/18 11:37:37;;;;;;;1.92;1.15;;;24.10;99.90;;;;;;5000154;28;20129;-80
2022/08/18 11:40:10;;;;;;;1.50;0.90;;;24.70;99.90;;;;;;5003428;28;20060;-80
2022/08/18 11:42:46;;;;;;;2.00;0.90;;;24.70;99.90;;;;;;5008694;28;20052;-80
2022/08/18 11:45:17;;;;;;;3.03;0.90;;;24.70;99.90;;;;;;5020343;28;20116;-80
2022/08/18 11:48:18;;;;;;;1.52;0.73;;;24.70;99.90;;;;;;5005919;28;20037;-80
2022/08/18 11:50:48;;;;;;;2.30;1.05;;;24.80;99.90;;;;;;5001154;28;20124;-80
2022/08/18 11:53:49;;;;;;;2.05;0.93;;;24.60;99.90;;;;;;5007006;28;20057;-80
2022/08/18 11:56:23;;;;;;;3.40;1.45;;;24.70;99.90;;;;;;5018227;28;20052;-80
2022/08/18 11:59:04;;;;;;;3.50;1.10;;;25.00;99.90;;;;;;5023665;28;20037;-80
2022/08/18 12:01:37;;;;;;;4.30;1.02;;;25.30;99.90;;;;;;5022539;28;20073;-80
2022/08/18 12:04:12;;;;;;;4.00;1.20;;;25.30;99.90;;;;;;5015138;28;20398;-80
2022/08/18 12:06:48;;;;;;;4.47;1.10;;;25.60;99.90;;;;;;5017311;28;20068;-81
2022/08/18 12:09:37;;;;;;;3.78;1.35;;;25.60;99.90;;;;;;5019454;28;20069;-80
2022/08/18 12:12:13;;;;;;;3.15;1.15;;;25.60;99.90;;;;;;5019508;28;20045;-81
2022/08/18 12:14:54;;;;;;;2.22;1.00;;;25.70;99.90;;;;;;5000508;28;20037;-81
2022/08/18 12:17:20;;;;;;;2.45;1.08;;;25.50;99.90;;;;;;5022777;28;20060;-80
2022/08/18 12:19:46;;;;;;;5.30;1.40;;;25.70;99.90;;;;;;4993689;28;20033;-81
2022/08/18 12:22:37;;;;;;;2.95;1.02;;;25.90;99.90;;;;;;5001199;28;20060;-81
2022/08/18 12:25:09;;;;;;;3.50;1.02;;;26.20;99.90;;;;;;4994148;28;20045;-80
2022/08/18 12:27:35;;;;;;;3.58;1.10;;;26.50;99.90;;;;;;5026734;28;20037;-80
2022/08/18 12:30:01;;;;;;;2.35;0.95;;;26.50;99.90;;;;;;5021014;28;20034;-80
2022/08/18 12:32:29;;;;;;;2.85;1.05;;;26.90;99.90;;;;;;4987915;28;20042;-81
2022/08/18 12:34:55;;;;;;;3.53;0.70;;;27.10;99.90;;;;;;5024947;28;20037;-81
2022/08/18 12:37:24;;;;;;;2.10;1.10;;;26.90;99.90;;;;;;5005491;28;20096;-81
2022/08/18 12:39:51;;;;;;;2.90;1.20;;;26.60;99.90;;;;;;5008784;28;20041;-81
2022/08/18 12:42:18;;;;;;;2.05;0.88;;;26.50;99.90;;;;;;5017564;28;20040;-81
2022/08/18 12:44:43;;;;;;;3.75;0.98;;;26.30;99.90;;;;;;5001227;28;20092;-80
2022/08/18 12:47:11;;;;;;;2.25;0.90;;;26.20;99.90;;;;;;5005988;28;20037;-82
2022/08/18 12:49:37;;;;;;;2.08;1.00;;;26.70;99.90;;;;;;5027134;28;20397;-81
2022/08/18 12:52:03;;;;;;;3.08;0.95;;;27.00;99.90;;;;;;5026979;28;20037;-81
2022/08/18 12:54:31;;;;;;;3.30;1.10;;;27.20;99.90;;;;;;4984461;28;20054;-81
2022/08/18 12:56:57;;;;;;;2.65;1.10;;;27.20;99.90;;;;;;5007824;28;20033;-81
2022/08/18 12:59:23;;;;;;;2.90;1.00;;;27.60;99.90;;;;;;5003581;28;20038;-81
2022/08/18 13:01:49;;;;;;;2.15;1.00;;;27.50;99.90;;;;;;5002404;28;20048;-81
2022/08/18 13:04:15;;;;;;;1.50;0.73;;;27.20;99.90;;;;;;4987909;28;20539;-81
2022/08/18 13:06:52;;;;;;;1.98;0.80;;;27.00;99.90;;;;;;4988195;28;20041;-81
2022/08/18 13:09:18;;;;;;;2.50;0.90;;;26.70;99.90;;;;;;4999002;28;20045;-81
2022/08/18 13:11:44;;;;;;;3.70;1.00;;;26.40;99.90;;;;;;4999692;28;20045;-81
2022/08/18 13:14:10;;;;;;;2.85;1.10;;;26.30;99.90;;;;;;5006831;28;20515;-80
2022/08/18 13:16:40;;;;;;;2.75;0.93;;;26.60;99.90;;;;;;5001218;28;20125;-81
2022/08/18 13:19:09;;;;;;;3.28;1.20;;;27.10;99.90;;;;;;5019302;28;20037;-81
2022/08/18 13:21:35;;;;;;;1.75;0.73;;;27.70;99.90;;;;;;5023724;28;20044;-81
2022/08/18 13:24:03;;;;;;;4.03;1.10;;;27.40;99.90;;;;;;5006478;28;20038;-81
2022/08/18 13:26:37;;;;;;;2.78;0.90;;;26.80;99.90;;;;;;5007756;28;20082;-81
2022/08/18 13:29:04;;;;;;;1.75;0.73;;;26.80;99.90;;;;;;5009479;28;20494;-81